BBA01 EDDH-EPKK
Flight info
| Callsign | BBA01 |
|---|---|
| Flight time | N/A |
| Altitude | 39000 |
| Route | AMLUH2G AMLUH L619 PITEN Z998 RATMO DCT POGAB DCT LASIS T714 MAPIK |
| Aircraft | CL60/M-SBDE1E2E3FGHIJ1J4J5J7M3RWXYZ/LB1V1D1 |
Departure
| Time | 2026-04-22 20:52 |
|---|---|
| Airport | Hamburg Helmut Schmidt Airport (EDDH) |
Arrival
| Time | N/A |
|---|---|
| Airport | Kraków John Paul II International Airport (EPKK) |
| Time | Latitude | Longitude | Altitude | Speed | Heading |
|---|---|---|---|---|---|
| 2026-04-22 20:07 | 53.62937 | 9.99219 | 61 ft | 0 kts | 242° |
| 2026-04-22 20:45 | 53.62936 | 9.99218 | 61 ft | 0 kts | 243° |
| 2026-04-22 20:46 | 53.62949 | 9.99258 | 61 ft | 2 kts | 242° |
| 2026-04-22 20:46 | 53.62956 | 9.99281 | 61 ft | 2 kts | 242° |
| 2026-04-22 20:46 | 53.62963 | 9.99303 | 61 ft | 2 kts | 242° |
| 2026-04-22 20:47 | 53.62970 | 9.99325 | 61 ft | 2 kts | 242° |
| 2026-04-22 20:47 | 53.62972 | 9.99341 | 61 ft | 1 kts | 288° |
| 2026-04-22 20:47 | 53.62967 | 9.99351 | 61 ft | 1 kts | 333° |
| 2026-04-22 20:47 | 53.62965 | 9.99352 | 61 ft | 0 kts | 334° |
| 2026-04-22 20:49 | 53.62990 | 9.99330 | 61 ft | 7 kts | 330° |
| 2026-04-22 20:49 | 53.63045 | 9.99290 | 61 ft | 10 kts | 349° |
| 2026-04-22 20:49 | 53.63123 | 9.99309 | 61 ft | 11 kts | 14° |
| 2026-04-22 20:50 | 53.63140 | 9.99316 | 61 ft | 0 kts | 13° |
| 2026-04-22 20:51 | 53.63142 | 9.99317 | 61 ft | 3 kts | 13° |
| 2026-04-22 20:51 | 53.63207 | 9.99344 | 61 ft | 13 kts | 13° |
| 2026-04-22 20:51 | 53.63288 | 9.99373 | 61 ft | 8 kts | 1° |
| 2026-04-22 20:52 | 53.63345 | 9.99332 | 61 ft | 10 kts | 333° |
| 2026-04-22 20:52 | 53.63610 | 9.99104 | 61 ft | 93 kts | 332° |
| 2026-04-22 20:52 | 53.64444 | 9.98392 | 291 ft | 158 kts | 332° |
| 2026-04-22 20:52 | 53.65465 | 9.97514 | 1156 ft | 175 kts | 333° |
| 2026-04-22 20:53 | 53.66529 | 9.96604 | 2127 ft | 182 kts | 334° |
| 2026-04-22 20:53 | 53.67706 | 9.95598 | 3142 ft | 197 kts | 334° |
| 2026-04-22 20:53 | 53.68980 | 9.94701 | 4309 ft | 209 kts | 349° |
| 2026-04-22 20:53 | 53.70448 | 9.94562 | 5157 ft | 222 kts | 0° |
| 2026-04-22 20:54 | 53.71944 | 9.94602 | 6687 ft | 221 kts | 2° |
| 2026-04-22 20:54 | 53.73354 | 9.95239 | 8168 ft | 219 kts | 29° |
| 2026-04-22 20:54 | 53.74395 | 9.97078 | 9370 ft | 232 kts | 62° |
| 2026-04-22 20:54 | 53.74677 | 9.99827 | 10095 ft | 249 kts | 90° |
| 2026-04-22 20:55 | 53.74379 | 10.02774 | 10966 ft | 265 kts | 106° |
| 2026-04-22 20:55 | 53.73565 | 10.05537 | 12231 ft | 273 kts | 118° |
| 2026-04-22 20:55 | 53.72451 | 10.08256 | 13080 ft | 293 kts | 122° |
| 2026-04-22 20:55 | 53.71245 | 10.11040 | 14142 ft | 301 kts | 122° |
| 2026-04-22 20:56 | 53.70020 | 10.13873 | 15265 ft | 306 kts | 122° |
| 2026-04-22 20:56 | 53.68770 | 10.16768 | 16278 ft | 312 kts | 123° |
| 2026-04-22 20:56 | 53.67472 | 10.19770 | 17324 ft | 318 kts | 123° |
| 2026-04-22 20:56 | 53.66164 | 10.22791 | 18297 ft | 322 kts | 123° |
| 2026-04-22 20:57 | 53.64852 | 10.25817 | 19231 ft | 326 kts | 123° |
| 2026-04-22 20:57 | 53.63508 | 10.28913 | 20211 ft | 328 kts | 123° |
| 2026-04-22 20:57 | 53.62180 | 10.31969 | 21115 ft | 331 kts | 124° |
| 2026-04-22 20:57 | 53.60809 | 10.35121 | 22013 ft | 333 kts | 123° |
| 2026-04-22 20:58 | 53.59444 | 10.38255 | 22857 ft | 336 kts | 123° |
| 2026-04-22 20:58 | 53.58061 | 10.41426 | 23670 ft | 339 kts | 124° |
| 2026-04-22 20:58 | 53.56652 | 10.44650 | 24467 ft | 342 kts | 123° |
| 2026-04-22 20:58 | 53.55251 | 10.47843 | 25369 ft | 341 kts | 123° |
| 2026-04-22 20:59 | 53.53854 | 10.51023 | 26235 ft | 340 kts | 123° |
| 2026-04-22 20:59 | 53.52441 | 10.54242 | 27018 ft | 341 kts | 123° |
| 2026-04-22 20:59 | 53.51039 | 10.57429 | 27765 ft | 341 kts | 122° |
| 2026-04-22 20:59 | 53.49630 | 10.60631 | 28422 ft | 343 kts | 122° |
| 2026-04-22 21:00 | 53.48215 | 10.63843 | 29089 ft | 344 kts | 122° |
| 2026-04-22 21:00 | 53.46794 | 10.67064 | 29728 ft | 345 kts | 122° |
| 2026-04-22 21:00 | 53.45347 | 10.70341 | 30340 ft | 347 kts | 122° |
| 2026-04-22 21:00 | 53.43977 | 10.73633 | 30903 ft | 347 kts | 118° |
| 2026-04-22 21:01 | 53.42686 | 10.77077 | 31430 ft | 349 kts | 118° |
| 2026-04-22 21:01 | 53.41391 | 10.80531 | 31951 ft | 351 kts | 118° |
| 2026-04-22 21:01 | 53.40091 | 10.83991 | 32448 ft | 352 kts | 118° |
| 2026-04-22 21:01 | 53.38804 | 10.87406 | 32946 ft | 353 kts | 118° |
| 2026-04-22 21:02 | 53.37492 | 10.90883 | 33392 ft | 354 kts | 117° |
| 2026-04-22 21:02 | 53.36174 | 10.94367 | 33815 ft | 356 kts | 118° |
| 2026-04-22 21:02 | 53.34838 | 10.97895 | 34204 ft | 358 kts | 117° |
| 2026-04-22 21:02 | 53.33512 | 11.01392 | 34542 ft | 360 kts | 117° |
| 2026-04-22 21:03 | 53.32157 | 11.04957 | 34846 ft | 363 kts | 118° |
| 2026-04-22 21:03 | 53.30799 | 11.08523 | 35090 ft | 366 kts | 118° |
| 2026-04-22 21:03 | 53.29429 | 11.12118 | 35289 ft | 370 kts | 117° |
| 2026-04-22 21:03 | 53.28057 | 11.15710 | 35535 ft | 372 kts | 118° |
| 2026-04-22 21:04 | 53.26656 | 11.19372 | 35773 ft | 375 kts | 117° |
| 2026-04-22 21:04 | 53.25243 | 11.23059 | 35949 ft | 378 kts | 117° |
| 2026-04-22 21:04 | 53.23821 | 11.26767 | 36166 ft | 381 kts | 118° |
| 2026-04-22 21:04 | 53.22388 | 11.30494 | 36355 ft | 384 kts | 118° |
| 2026-04-22 21:05 | 53.20937 | 11.34261 | 36531 ft | 387 kts | 118° |
| 2026-04-22 21:05 | 53.19498 | 11.37993 | 36772 ft | 389 kts | 118° |
| 2026-04-22 21:05 | 53.18037 | 11.41777 | 36995 ft | 391 kts | 118° |
| 2026-04-22 21:05 | 53.16544 | 11.45634 | 37181 ft | 395 kts | 118° |
| 2026-04-22 21:06 | 53.15064 | 11.49457 | 37378 ft | 397 kts | 118° |
| 2026-04-22 21:06 | 53.13560 | 11.53330 | 37580 ft | 399 kts | 118° |
| 2026-04-22 21:06 | 53.12066 | 11.57175 | 37712 ft | 402 kts | 118° |
| 2026-04-22 21:06 | 53.10544 | 11.61084 | 37882 ft | 404 kts | 118° |
| 2026-04-22 21:07 | 53.09014 | 11.65007 | 38041 ft | 405 kts | 119° |
| 2026-04-22 21:07 | 53.07467 | 11.68970 | 38175 ft | 407 kts | 118° |
| 2026-04-22 21:07 | 53.04357 | 11.76914 | 38428 ft | 412 kts | 118° |
| 2026-04-22 21:08 | 53.02784 | 11.80920 | 38584 ft | 412 kts | 118° |
| 2026-04-22 21:08 | 53.01235 | 11.84860 | 38789 ft | 412 kts | 118° |
| 2026-04-22 21:08 | 52.99669 | 11.88838 | 38973 ft | 412 kts | 118° |
| 2026-04-22 21:08 | 52.98092 | 11.92837 | 39162 ft | 413 kts | 119° |
| 2026-04-22 21:09 | 52.96520 | 11.96817 | 39278 ft | 414 kts | 119° |
| 2026-04-22 21:09 | 52.94941 | 12.00811 | 39300 ft | 417 kts | 118° |
| 2026-04-22 21:09 | 52.91729 | 12.08916 | 39286 ft | 424 kts | 118° |
| 2026-04-22 21:10 | 52.88451 | 12.17159 | 39290 ft | 429 kts | 118° |
| 2026-04-22 21:10 | 52.85196 | 12.25313 | 39306 ft | 432 kts | 118° |
| 2026-04-22 21:11 | 52.81857 | 12.33651 | 39284 ft | 433 kts | 119° |
| 2026-04-22 21:11 | 52.78517 | 12.41965 | 39284 ft | 433 kts | 118° |
| 2026-04-22 21:12 | 52.75606 | 12.49192 | 39301 ft | 433 kts | 118° |
| 2026-04-22 21:12 | 52.72598 | 12.56639 | 39297 ft | 433 kts | 118° |
| 2026-04-22 21:13 | 52.69179 | 12.65071 | 39295 ft | 432 kts | 119° |
| 2026-04-22 21:13 | 52.65829 | 12.73307 | 39292 ft | 432 kts | 119° |
| 2026-04-22 21:14 | 52.62443 | 12.81606 | 39279 ft | 433 kts | 119° |
| 2026-04-22 21:14 | 52.59065 | 12.89860 | 39283 ft | 434 kts | 119° |
| 2026-04-22 21:15 | 52.55671 | 12.98124 | 39276 ft | 433 kts | 119° |
| 2026-04-22 21:15 | 52.52290 | 13.06330 | 39278 ft | 433 kts | 119° |
| 2026-04-22 21:16 | 52.48894 | 13.14548 | 39283 ft | 433 kts | 119° |
| 2026-04-22 21:16 | 52.45497 | 13.22740 | 39269 ft | 435 kts | 119° |
| 2026-04-22 21:17 | 52.42076 | 13.30964 | 39288 ft | 433 kts | 119° |
| 2026-04-22 21:17 | 52.38668 | 13.39130 | 39270 ft | 433 kts | 119° |
| 2026-04-22 21:18 | 52.35239 | 13.47322 | 39279 ft | 433 kts | 119° |
| 2026-04-22 21:18 | 52.31833 | 13.55434 | 39287 ft | 433 kts | 119° |
| 2026-04-22 21:19 | 52.28400 | 13.63583 | 39276 ft | 433 kts | 119° |
| 2026-04-22 21:19 | 52.24960 | 13.71721 | 39271 ft | 434 kts | 120° |
| 2026-04-22 21:20 | 52.21486 | 13.79915 | 39267 ft | 434 kts | 120° |
| 2026-04-22 21:20 | 52.18031 | 13.88038 | 39266 ft | 434 kts | 120° |
| 2026-04-22 21:21 | 52.14574 | 13.96139 | 39252 ft | 433 kts | 120° |
| 2026-04-22 21:21 | 52.11120 | 14.04210 | 39268 ft | 432 kts | 120° |
| 2026-04-22 21:22 | 52.07667 | 14.12254 | 39263 ft | 433 kts | 120° |
| 2026-04-22 21:22 | 52.04200 | 14.20303 | 39261 ft | 434 kts | 120° |
| 2026-04-22 21:23 | 52.00724 | 14.28350 | 39255 ft | 434 kts | 120° |
| 2026-04-22 21:23 | 51.97235 | 14.36400 | 39242 ft | 434 kts | 120° |
| 2026-04-22 21:24 | 51.93748 | 14.44420 | 39250 ft | 434 kts | 120° |
| 2026-04-22 21:24 | 51.90239 | 14.52467 | 39247 ft | 435 kts | 120° |
| 2026-04-22 21:25 | 51.86683 | 14.60594 | 39259 ft | 435 kts | 120° |
| 2026-04-22 21:25 | 51.83229 | 14.68468 | 39253 ft | 436 kts | 120° |
| 2026-04-22 21:26 | 51.79685 | 14.76520 | 39266 ft | 437 kts | 120° |
| 2026-04-22 21:26 | 51.76226 | 14.84354 | 39250 ft | 436 kts | 120° |
| 2026-04-22 21:27 | 51.72669 | 14.92382 | 39253 ft | 437 kts | 120° |
| 2026-04-22 21:27 | 51.69155 | 15.00290 | 39252 ft | 436 kts | 120° |
| 2026-04-22 21:28 | 51.65608 | 15.08250 | 39243 ft | 435 kts | 120° |
| 2026-04-22 21:28 | 51.62053 | 15.16203 | 39234 ft | 437 kts | 120° |
| 2026-04-22 21:29 | 51.58491 | 15.24147 | 39245 ft | 437 kts | 120° |
| 2026-04-22 21:29 | 51.54931 | 15.32063 | 39241 ft | 438 kts | 120° |
| 2026-04-22 21:30 | 51.51353 | 15.39995 | 39251 ft | 437 kts | 120° |
| 2026-04-22 21:30 | 51.47749 | 15.47957 | 39250 ft | 437 kts | 120° |
| 2026-04-22 21:31 | 51.44176 | 15.55831 | 39253 ft | 437 kts | 120° |
| 2026-04-22 21:31 | 51.40582 | 15.63724 | 39238 ft | 437 kts | 120° |
| 2026-04-22 21:32 | 51.36950 | 15.71680 | 39240 ft | 439 kts | 121° |
| 2026-04-22 21:32 | 51.33318 | 15.79609 | 39240 ft | 439 kts | 121° |
| 2026-04-22 21:33 | 51.29695 | 15.87496 | 39224 ft | 439 kts | 121° |
| 2026-04-22 21:33 | 51.26061 | 15.95381 | 39239 ft | 439 kts | 121° |
| 2026-04-22 21:34 | 51.22410 | 16.03281 | 39244 ft | 439 kts | 121° |
| 2026-04-22 21:34 | 51.18790 | 16.11091 | 39223 ft | 439 kts | 121° |
| 2026-04-22 21:35 | 51.15113 | 16.18997 | 39222 ft | 440 kts | 121° |
| 2026-04-22 21:35 | 51.11453 | 16.26844 | 39219 ft | 440 kts | 121° |
| 2026-04-22 21:36 | 51.07801 | 16.34650 | 39209 ft | 440 kts | 121° |
| 2026-04-22 21:36 | 51.04136 | 16.42462 | 39225 ft | 440 kts | 121° |
| 2026-04-22 21:37 | 51.00577 | 16.50416 | 39219 ft | 435 kts | 114° |
| 2026-04-22 21:37 | 50.98095 | 16.59089 | 39203 ft | 431 kts | 108° |
| 2026-04-22 21:38 | 50.95757 | 16.67904 | 39199 ft | 433 kts | 108° |
| 2026-04-22 21:38 | 50.93538 | 16.76230 | 39199 ft | 433 kts | 108° |
| 2026-04-22 21:39 | 50.91180 | 16.85049 | 39195 ft | 433 kts | 108° |
| 2026-04-22 21:39 | 50.88810 | 16.93873 | 39204 ft | 432 kts | 108° |
| 2026-04-22 21:40 | 50.86440 | 17.02667 | 39146 ft | 433 kts | 108° |
| 2026-04-22 21:40 | 50.85371 | 17.06621 | 38832 ft | 433 kts | 108° |
| 2026-04-22 21:40 | 50.84463 | 17.09970 | 38413 ft | 429 kts | 108° |
| 2026-04-22 21:41 | 50.83298 | 17.14251 | 37892 ft | 424 kts | 108° |
| 2026-04-22 21:41 | 50.82118 | 17.18537 | 37288 ft | 419 kts | 108° |
| 2026-04-22 21:41 | 50.80985 | 17.22643 | 36760 ft | 413 kts | 108° |
| 2026-04-22 21:41 | 50.79851 | 17.26740 | 36285 ft | 407 kts | 107° |
| 2026-04-22 21:42 | 50.78714 | 17.30851 | 35679 ft | 405 kts | 107° |
| 2026-04-22 21:42 | 50.77594 | 17.34895 | 35165 ft | 402 kts | 107° |
| 2026-04-22 21:42 | 50.76476 | 17.38927 | 34604 ft | 402 kts | 107° |
| 2026-04-22 21:42 | 50.75354 | 17.42964 | 34097 ft | 402 kts | 107° |
| 2026-04-22 21:43 | 50.74226 | 17.47022 | 33547 ft | 405 kts | 107° |
| 2026-04-22 21:43 | 50.73101 | 17.51071 | 33030 ft | 407 kts | 107° |
| 2026-04-22 21:43 | 50.71974 | 17.55189 | 32468 ft | 410 kts | 107° |
| 2026-04-22 21:43 | 50.70847 | 17.59302 | 31925 ft | 412 kts | 107° |
| 2026-04-22 21:44 | 50.69712 | 17.63440 | 31372 ft | 414 kts | 107° |
| 2026-04-22 21:44 | 50.68563 | 17.67618 | 30821 ft | 414 kts | 107° |
| 2026-04-22 21:44 | 50.67419 | 17.71765 | 30271 ft | 413 kts | 107° |
| 2026-04-22 21:44 | 50.66271 | 17.75924 | 29726 ft | 411 kts | 107° |
| 2026-04-22 21:45 | 50.65324 | 17.79341 | 29281 ft | 409 kts | 107° |
| 2026-04-22 21:45 | 50.64196 | 17.83407 | 28731 ft | 407 kts | 107° |
| 2026-04-22 21:45 | 50.63105 | 17.87335 | 28207 ft | 405 kts | 107° |
| 2026-04-22 21:45 | 50.61971 | 17.91417 | 27678 ft | 403 kts | 107° |
| 2026-04-22 21:46 | 50.60955 | 17.94971 | 27200 ft | 404 kts | 109° |
| 2026-04-22 21:46 | 50.59689 | 17.98861 | 26648 ft | 403 kts | 110° |
| 2026-04-22 21:46 | 50.58750 | 18.02935 | 26124 ft | 390 kts | 95° |
| 2026-04-22 21:46 | 50.58508 | 18.07139 | 25586 ft | 383 kts | 87° |
| 2026-04-22 21:47 | 50.58395 | 18.11328 | 25070 ft | 382 kts | 87° |
| 2026-04-22 21:47 | 50.58272 | 18.15538 | 24570 ft | 382 kts | 87° |
| 2026-04-22 21:47 | 50.58149 | 18.19704 | 24061 ft | 381 kts | 87° |
| 2026-04-22 21:47 | 50.58024 | 18.23867 | 23558 ft | 381 kts | 87° |
| 2026-04-22 21:48 | 50.57898 | 18.28015 | 23048 ft | 378 kts | 87° |
| 2026-04-22 21:48 | 50.57772 | 18.32103 | 22548 ft | 375 kts | 87° |
| 2026-04-22 21:48 | 50.57643 | 18.36230 | 22052 ft | 374 kts | 87° |
| 2026-04-22 21:48 | 50.57516 | 18.40293 | 21558 ft | 372 kts | 87° |
| 2026-04-22 21:49 | 50.57386 | 18.44315 | 21066 ft | 369 kts | 87° |
| 2026-04-22 21:49 | 50.57240 | 18.48338 | 20653 ft | 365 kts | 87° |
| 2026-04-22 21:49 | 50.57093 | 18.52250 | 20169 ft | 358 kts | 87° |
| 2026-04-22 21:49 | 50.56947 | 18.56152 | 19631 ft | 351 kts | 87° |
| 2026-04-22 21:50 | 50.56804 | 18.59959 | 19326 ft | 353 kts | 87° |
| 2026-04-22 21:50 | 50.56659 | 18.63885 | 19037 ft | 358 kts | 87° |
| 2026-04-22 21:50 | 50.56517 | 18.67652 | 18977 ft | 359 kts | 88° |
| 2026-04-22 21:50 | 50.56383 | 18.71398 | 18967 ft | 360 kts | 87° |
| 2026-04-22 21:51 | 50.56367 | 18.75198 | 18951 ft | 360 kts | 84° |
| 2026-04-22 21:51 | 50.56389 | 18.79109 | 18934 ft | 361 kts | 84° |
| 2026-04-22 21:51 | 50.56408 | 18.83044 | 18645 ft | 361 kts | 84° |
| 2026-04-22 21:52 | 50.56433 | 18.90713 | 18022 ft | 340 kts | 84° |
| 2026-04-22 21:52 | 50.56446 | 18.94430 | 17762 ft | 333 kts | 84° |
| 2026-04-22 21:52 | 50.56457 | 18.98025 | 17508 ft | 327 kts | 84° |
| 2026-04-22 21:52 | 50.56466 | 19.01579 | 17299 ft | 319 kts | 84° |
| 2026-04-22 21:53 | 50.56475 | 19.05064 | 17070 ft | 314 kts | 84° |
| 2026-04-22 21:53 | 50.56482 | 19.08439 | 16820 ft | 306 kts | 84° |
| 2026-04-22 21:53 | 50.56489 | 19.11787 | 16613 ft | 303 kts | 84° |
| 2026-04-22 21:53 | 50.56482 | 19.15080 | 16379 ft | 303 kts | 84° |
| 2026-04-22 21:54 | 50.56467 | 19.18392 | 16163 ft | 301 kts | 84° |
| 2026-04-22 21:54 | 50.56452 | 19.21664 | 15934 ft | 301 kts | 84° |
| 2026-04-22 21:54 | 50.56435 | 19.24967 | 15730 ft | 300 kts | 84° |
| 2026-04-22 21:54 | 50.56419 | 19.28232 | 15506 ft | 300 kts | 84° |
| 2026-04-22 21:55 | 50.56400 | 19.31536 | 15275 ft | 299 kts | 84° |
| 2026-04-22 21:55 | 50.56381 | 19.34783 | 15071 ft | 299 kts | 84° |
| 2026-04-22 21:55 | 50.56362 | 19.38013 | 14881 ft | 297 kts | 84° |
| 2026-04-22 21:55 | 50.56341 | 19.41295 | 14630 ft | 296 kts | 84° |
| 2026-04-22 21:56 | 50.56319 | 19.44505 | 14427 ft | 297 kts | 85° |
| 2026-04-22 21:56 | 50.56296 | 19.47780 | 14218 ft | 295 kts | 84° |
| 2026-04-22 21:56 | 50.56273 | 19.51023 | 13985 ft | 295 kts | 85° |
| 2026-04-22 21:56 | 50.56249 | 19.54230 | 13789 ft | 295 kts | 84° |
| 2026-04-22 21:57 | 50.56224 | 19.57474 | 13564 ft | 295 kts | 84° |
| 2026-04-22 21:57 | 50.56014 | 19.60666 | 13360 ft | 301 kts | 98° |
| 2026-04-22 21:57 | 50.55189 | 19.63710 | 13105 ft | 309 kts | 117° |
| 2026-04-22 21:57 | 50.53701 | 19.66254 | 12776 ft | 318 kts | 140° |
| 2026-04-22 21:58 | 50.51774 | 19.67968 | 12368 ft | 320 kts | 150° |
| 2026-04-22 21:58 | 50.49846 | 19.69467 | 12102 ft | 316 kts | 150° |
| 2026-04-22 21:58 | 50.47854 | 19.71033 | 11778 ft | 317 kts | 150° |
| 2026-04-22 21:58 | 50.45897 | 19.72569 | 11474 ft | 315 kts | 150° |
| 2026-04-22 21:59 | 50.43940 | 19.74103 | 11158 ft | 313 kts | 150° |
| 2026-04-22 21:59 | 50.41991 | 19.75630 | 10857 ft | 312 kts | 151° |
| 2026-04-22 21:59 | 50.40035 | 19.77160 | 10539 ft | 311 kts | 151° |
| 2026-04-22 21:59 | 50.38125 | 19.78653 | 10243 ft | 309 kts | 151° |
| 2026-04-22 22:00 | 50.36189 | 19.80165 | 9927 ft | 308 kts | 151° |
| 2026-04-22 22:00 | 50.34265 | 19.81666 | 9627 ft | 307 kts | 151° |
| 2026-04-22 22:00 | 50.32363 | 19.83148 | 9328 ft | 305 kts | 152° |
| 2026-04-22 22:00 | 50.30458 | 19.84633 | 9028 ft | 304 kts | 152° |
| 2026-04-22 22:01 | 50.28542 | 19.86130 | 8460 ft | 310 kts | 152° |
| 2026-04-22 22:01 | 50.26643 | 19.87613 | 8096 ft | 305 kts | 152° |
| 2026-04-22 22:01 | 50.24717 | 19.89115 | 7550 ft | 307 kts | 152° |
| 2026-04-22 22:01 | 50.22848 | 19.90571 | 7189 ft | 302 kts | 152° |
| 2026-04-22 22:02 | 50.20957 | 19.92044 | 6763 ft | 299 kts | 152° |
| 2026-04-22 22:02 | 50.19395 | 19.93380 | 6420 ft | 295 kts | 142° |
| 2026-04-22 22:02 | 50.18700 | 19.94298 | 6237 ft | 291 kts | 130° |
| 2026-04-22 22:03 | 50.17461 | 19.96745 | 5837 ft | 288 kts | 127° |
| 2026-04-22 22:03 | 50.15860 | 19.98597 | 5427 ft | 290 kts | 160° |
| 2026-04-22 22:03 | 50.13908 | 19.99060 | 5009 ft | 284 kts | 184° |
| 2026-04-22 22:03 | 50.12038 | 19.98397 | 4525 ft | 272 kts | 211° |
| 2026-04-22 22:04 | 50.10642 | 19.96561 | 4031 ft | 255 kts | 240° |
| 2026-04-22 22:04 | 50.09953 | 19.94219 | 3555 ft | 242 kts | 260° |
| 2026-04-22 22:04 | 50.09589 | 19.91705 | 3121 ft | 233 kts | 263° |
| 2026-04-22 22:04 | 50.09258 | 19.89263 | 2640 ft | 222 kts | 262° |
| 2026-04-22 22:05 | 50.08957 | 19.87062 | 2155 ft | 194 kts | 261° |
| 2026-04-22 22:05 | 50.08727 | 19.85392 | 1793 ft | 174 kts | 261° |
| 2026-04-22 22:05 | 50.08494 | 19.83689 | 1415 ft | 152 kts | 260° |
| 2026-04-22 22:05 | 50.08289 | 19.82214 | 1178 ft | 131 kts | 259° |
| 2026-04-22 22:06 | 50.08225 | 19.81744 | 1106 ft | 129 kts | 258° |